createdAt,value
2019-04-30T00:02:29.343Z,4.00
2019-04-30T00:04:56.542Z,7.20
2019-04-30T00:07:26.041Z,6.97
2019-04-30T00:09:57.622Z,8.97
2019-04-30T00:12:30.786Z,9.77
2019-04-30T00:14:58.550Z,9.33
2019-04-30T00:17:29.686Z,7.97
2019-04-30T00:20:00.087Z,3.27
2019-04-30T00:22:33.877Z,8.30
2019-04-30T00:25:01.201Z,9.13
2019-04-30T00:27:30.766Z,7.63
2019-04-30T00:30:04.846Z,8.17
2019-04-30T00:32:32.012Z,8.33
2019-04-30T00:35:01.604Z,9.20
2019-04-30T00:37:31.094Z,10.10
2019-04-30T00:40:00.678Z,12.70
2019-04-30T00:42:30.168Z,8.03
2019-04-30T00:45:04.114Z,5.67
2019-04-30T00:47:31.013Z,6.70
2019-04-30T00:50:00.597Z,11.77
2019-04-30T00:52:33.973Z,9.27
2019-04-30T00:55:07.539Z,9.37
2019-04-30T00:57:37.297Z,14.03
2019-04-30T01:00:09.889Z,10.13
2019-04-30T01:02:47.135Z,7.37
2019-04-30T01:05:21.806Z,5.70
2019-04-30T01:07:51.942Z,6.13
2019-04-30T01:10:24.673Z,5.67
2019-04-30T01:12:54.070Z,8.00
2019-04-30T01:15:23.558Z,7.23
2019-04-30T01:17:53.951Z,6.70
2019-04-30T01:20:30.968Z,8.77
2019-04-30T01:22:56.047Z,6.93
2019-04-30T01:25:26.359Z,7.17
2019-04-30T01:27:55.925Z,5.63
2019-04-30T01:30:25.887Z,6.60
2019-04-30T01:32:56.923Z,4.17
2019-04-30T01:35:31.280Z,4.10
2019-04-30T01:37:59.583Z,3.70
2019-04-30T01:40:29.256Z,5.70
2019-04-30T01:42:59.378Z,7.20
2019-04-30T01:45:31.658Z,8.30
2019-04-30T01:48:08.435Z,5.73
2019-04-30T01:50:33.718Z,6.50
2019-04-30T01:53:04.835Z,7.37
2019-04-30T01:55:51.560Z,4.80
2019-04-30T01:58:22.787Z,4.63
2019-04-30T02:00:53.916Z,6.03
2019-04-30T02:03:23.397Z,3.37
2019-04-30T02:05:52.959Z,7.37
2019-04-30T02:08:22.534Z,8.10
2019-04-30T02:10:52.104Z,6.67
2019-04-30T02:13:21.513Z,8.57
2019-04-30T02:15:51.009Z,6.13
2019-04-30T02:18:20.503Z,9.67
2019-04-30T02:20:50.318Z,8.93
2019-04-30T02:23:19.801Z,10.47
2019-04-30T02:25:49.391Z,7.30
2019-04-30T02:28:19.122Z,7.60
2019-04-30T02:30:50.360Z,10.13
2019-04-30T02:33:20.796Z,10.07
2019-04-30T02:35:54.961Z,6.47
2019-04-30T02:38:26.091Z,6.90
2019-04-30T02:40:56.495Z,10.10
2019-04-30T02:43:29.962Z,9.33
2019-04-30T02:46:00.161Z,8.60
2019-04-30T02:48:32.412Z,7.90
2019-04-30T02:51:04.068Z,8.80
2019-04-30T02:54:03.606Z,10.10
2019-04-30T02:56:33.224Z,12.30
2019-04-30T02:59:03.846Z,9.53
2019-04-30T03:01:33.806Z,9.10
2019-04-30T03:04:03.372Z,7.70
2019-04-30T03:06:32.943Z,7.30
2019-04-30T03:09:02.454Z,7.80
2019-04-30T03:11:33.248Z,9.03
2019-04-30T03:14:02.818Z,7.40
2019-04-30T03:16:33.983Z,8.20
2019-04-30T03:19:14.205Z,10.27
2019-04-30T03:21:50.280Z,8.77
2019-04-30T03:24:20.258Z,11.43
2019-04-30T03:26:50.281Z,8.67
2019-04-30T03:29:24.025Z,8.27
2019-04-30T03:31:52.717Z,7.90
2019-04-30T03:34:25.802Z,9.03
2019-04-30T03:36:53.551Z,9.07
2019-04-30T03:39:23.280Z,8.10
2019-04-30T03:41:52.703Z,10.27
2019-04-30T03:44:25.713Z,8.37
2019-04-30T03:46:53.239Z,10.57
2019-04-30T03:49:23.030Z,14.40
2019-04-30T03:51:52.520Z,9.80
2019-04-30T03:54:21.956Z,10.47
2019-04-30T03:56:53.181Z,7.40
2019-04-30T03:59:24.421Z,7.43
2019-04-30T04:01:55.500Z,8.13
2019-04-30T04:04:35.410Z,10.63
2019-04-30T04:07:22.481Z,10.30
2019-04-30T04:09:53.674Z,8.83
2019-04-30T04:12:29.962Z,7.00
2019-04-30T04:15:03.231Z,8.47
2019-04-30T04:17:31.559Z,8.53
2019-04-30T04:20:00.874Z,14.30
2019-04-30T04:22:30.956Z,9.23
2019-04-30T04:25:00.581Z,13.83
2019-04-30T04:27:30.547Z,16.23
2019-04-30T04:30:01.182Z,17.10
2019-04-30T04:32:32.197Z,16.87
2019-04-30T04:35:01.685Z,15.53
2019-04-30T04:37:31.359Z,15.27
2019-04-30T04:40:01.038Z,15.30
2019-04-30T04:42:33.038Z,14.03
2019-04-30T04:45:01.952Z,12.53
2019-04-30T04:47:31.518Z,16.17
2019-04-30T04:50:01.163Z,13.57
2019-04-30T04:52:40.717Z,22.97
2019-04-30T04:55:10.024Z,17.37
2019-04-30T04:57:40.294Z,11.90
2019-04-30T05:00:10.902Z,11.90
2019-04-30T05:02:49.600Z,14.07
2019-04-30T05:05:23.986Z,9.67
2019-04-30T05:08:02.670Z,14.73
2019-04-30T05:10:33.440Z,12.47
2019-04-30T05:13:03.093Z,14.63
2019-04-30T05:15:32.676Z,15.70
2019-04-30T05:18:02.237Z,13.47
2019-04-30T05:20:32.009Z,17.57
2019-04-30T05:23:01.658Z,16.97
2019-04-30T05:25:31.323Z,17.20
2019-04-30T05:28:03.909Z,18.43
2019-04-30T05:30:33.882Z,17.10
2019-04-30T05:33:05.163Z,13.30
2019-04-30T05:35:34.792Z,15.80
2019-04-30T05:38:04.517Z,18.17
2019-04-30T05:40:34.229Z,17.23
2019-04-30T05:43:03.929Z,11.07
2019-04-30T05:45:36.508Z,11.23
2019-04-30T05:48:08.857Z,11.37
2019-04-30T05:50:39.133Z,10.87
2019-04-30T05:53:09.155Z,12.63
2019-04-30T05:55:39.539Z,13.00
2019-04-30T05:58:09.557Z,11.77
2019-04-30T06:00:40.139Z,18.90
2019-04-30T06:03:09.894Z,12.83
2019-04-30T06:05:39.540Z,10.97
2019-04-30T06:08:11.034Z,10.73
2019-04-30T06:10:55.920Z,11.80
2019-04-30T06:13:38.399Z,9.17
2019-04-30T06:16:12.845Z,13.60
2019-04-30T06:18:42.424Z,15.47
2019-04-30T06:21:12.155Z,12.03
2019-04-30T06:23:41.714Z,10.20
2019-04-30T06:26:13.161Z,12.17
2019-04-30T06:28:43.562Z,13.93
2019-04-30T06:31:13.140Z,12.87
2019-04-30T06:33:42.778Z,14.70
2019-04-30T06:36:18.906Z,11.33
2019-04-30T06:38:48.932Z,14.77
2019-04-30T06:41:19.813Z,15.80
2019-04-30T06:43:49.909Z,11.83
2019-04-30T06:46:19.564Z,14.27
2019-04-30T06:48:51.152Z,12.70
2019-04-30T06:51:20.799Z,16.93
2019-04-30T06:53:51.380Z,17.60
2019-04-30T06:56:24.521Z,11.67
2019-04-30T06:58:54.041Z,8.47
2019-04-30T07:01:26.581Z,10.20
2019-04-30T07:03:58.882Z,15.13
2019-04-30T07:06:32.484Z,8.20
2019-04-30T07:09:17.021Z,15.37
2019-04-30T07:11:51.316Z,11.30
2019-04-30T07:14:20.940Z,10.87
2019-04-30T07:16:50.492Z,16.30
2019-04-30T07:19:31.972Z,14.43
2019-04-30T07:21:51.315Z,14.43
2019-04-30T07:27:50.474Z,11.20
2019-04-30T07:30:20.661Z,17.20
2019-04-30T07:32:50.298Z,16.93
2019-04-30T07:35:19.897Z,7.27
2019-04-30T07:38:06.176Z,14.17
2019-04-30T07:40:42.410Z,6.80
2019-04-30T07:43:15.017Z,9.20
2019-04-30T07:45:44.588Z,10.80
2019-04-30T07:48:14.239Z,10.50
2019-04-30T07:50:44.405Z,5.93
2019-04-30T07:53:14.001Z,7.60
2019-04-30T07:55:43.660Z,10.37
2019-04-30T07:58:13.208Z,6.83
2019-04-30T08:00:43.159Z,6.30
2019-04-30T08:03:31.047Z,9.33
2019-04-30T08:06:02.825Z,7.83
2019-04-30T08:08:32.374Z,6.73
2019-04-30T08:11:02.037Z,9.77
2019-04-30T08:13:32.791Z,5.77
2019-04-30T08:16:02.881Z,5.47
2019-04-30T08:18:32.471Z,7.40
2019-04-30T08:21:01.961Z,13.27
2019-04-30T08:23:36.763Z,6.73
2019-04-30T08:26:02.926Z,6.83
2019-04-30T08:28:32.571Z,11.00
2019-04-30T08:31:02.268Z,5.90
2019-04-30T08:33:31.890Z,7.77
2019-04-30T08:36:01.544Z,9.80
2019-04-30T08:38:31.131Z,6.20
2019-04-30T08:41:01.003Z,12.00
2019-04-30T08:43:31.470Z,6.57
2019-04-30T08:46:00.967Z,6.77
2019-04-30T08:48:45.400Z,11.60
2019-04-30T08:51:01.872Z,7.77
2019-04-30T08:53:33.802Z,8.73
2019-04-30T08:56:02.724Z,8.10
2019-04-30T08:58:41.260Z,9.63
2019-04-30T09:01:10.859Z,7.20
2019-04-30T09:03:40.513Z,9.90
2019-04-30T09:06:11.814Z,9.83
2019-04-30T09:08:41.518Z,5.63
2019-04-30T09:11:25.223Z,4.33
2019-04-30T09:13:48.900Z,5.90
2019-04-30T09:16:19.446Z,4.10
2019-04-30T09:19:05.917Z,7.07
2019-04-30T09:21:35.572Z,3.30
2019-04-30T09:24:05.200Z,5.77
2019-04-30T09:26:34.796Z,5.90
2019-04-30T09:29:04.328Z,4.67
2019-04-30T09:31:35.665Z,5.37
2019-04-30T09:34:15.263Z,10.23
2019-04-30T09:36:39.027Z,3.57
2019-04-30T09:39:24.656Z,7.43
2019-04-30T09:41:54.232Z,4.60
2019-04-30T09:44:35.519Z,2.77
2019-04-30T09:47:08.821Z,6.40
2019-04-30T09:49:38.825Z,2.23
2019-04-30T09:52:10.122Z,4.20
2019-04-30T09:54:46.152Z,3.43
2019-04-30T09:57:24.489Z,3.53
2019-04-30T09:59:54.091Z,4.43
2019-04-30T10:02:23.727Z,1.93
2019-04-30T10:04:53.568Z,3.00
2019-04-30T10:07:35.426Z,5.33
2019-04-30T10:10:09.433Z,3.03
2019-04-30T10:12:39.216Z,4.10
2019-04-30T10:15:12.093Z,4.23
2019-04-30T10:18:13.889Z,3.97
2019-04-30T10:23:39.181Z,4.93
2019-04-30T10:26:11.013Z,8.53
2019-04-30T10:28:43.400Z,4.57
2019-04-30T10:31:15.212Z,7.73
2019-04-30T10:33:48.551Z,5.73
2019-04-30T10:36:22.163Z,5.10
2019-04-30T10:38:55.953Z,2.67
2019-04-30T10:41:28.818Z,3.57
2019-04-30T10:43:59.218Z,4.70
2019-04-30T10:46:28.795Z,4.20
2019-04-30T10:48:58.476Z,4.40
2019-04-30T10:51:28.849Z,2.47
2019-04-30T10:53:59.192Z,2.73
2019-04-30T10:56:29.231Z,4.43
2019-04-30T10:58:58.942Z,3.03
2019-04-30T11:01:33.296Z,2.53
2019-04-30T11:04:02.959Z,1.77
2019-04-30T11:06:32.715Z,2.67
2019-04-30T11:09:02.432Z,2.27
2019-04-30T11:11:33.282Z,2.63
2019-04-30T11:14:04.615Z,2.93
2019-04-30T11:16:34.342Z,3.23
2019-04-30T11:19:04.472Z,2.40
2019-04-30T11:21:35.733Z,3.00
2019-04-30T11:24:09.118Z,1.57
2019-04-30T11:26:40.353Z,3.70
2019-04-30T11:29:14.347Z,3.57
2019-04-30T11:32:00.017Z,5.47
2019-04-30T11:34:35.166Z,3.10
2019-04-30T11:37:27.456Z,3.53
2019-04-30T11:40:04.276Z,2.33
2019-04-30T11:42:43.668Z,4.37
2019-04-30T11:45:16.572Z,2.87
2019-04-30T11:47:53.343Z,2.67
2019-04-30T11:50:19.678Z,1.30
2019-04-30T11:56:05.794Z,2.60
2019-04-30T11:58:35.404Z,1.90
2019-04-30T12:01:09.000Z,3.43
2019-04-30T12:03:39.438Z,2.90
2019-04-30T12:06:09.538Z,2.00
2019-04-30T12:08:55.865Z,2.80
2019-04-30T12:11:29.815Z,5.27
2019-04-30T12:14:01.153Z,1.60
2019-04-30T12:16:33.607Z,2.83
2019-04-30T12:19:04.765Z,1.83
2019-04-30T12:21:54.917Z,2.93
2019-04-30T12:24:38.780Z,1.80
2019-04-30T12:27:13.646Z,3.37
2019-04-30T12:29:44.961Z,1.80
2019-04-30T12:32:14.597Z,3.67
2019-04-30T12:34:44.245Z,4.50
2019-04-30T12:37:13.993Z,3.47
2019-04-30T12:39:43.570Z,4.67
2019-04-30T12:42:13.218Z,2.43
2019-04-30T12:44:42.921Z,2.07
2019-04-30T12:47:12.705Z,1.83
2019-04-30T12:50:02.948Z,5.13
2019-04-30T12:52:36.953Z,2.20
2019-04-30T12:55:15.599Z,1.83
2019-04-30T12:57:55.529Z,1.97
2019-04-30T13:03:09.205Z,2.70
2019-04-30T13:06:34.520Z,2.33
2019-04-30T13:13:51.071Z,3.33
2019-04-30T13:16:25.399Z,2.87
2019-04-30T13:18:55.011Z,1.60
2019-04-30T13:21:24.504Z,4.37
2019-04-30T13:23:54.333Z,6.63
2019-04-30T13:26:23.961Z,1.80
2019-04-30T13:28:57.705Z,2.50
2019-04-30T13:31:29.470Z,2.07
2019-04-30T13:34:18.605Z,0.93
2019-04-30T13:36:49.342Z,1.60
2019-04-30T13:39:20.612Z,1.97
2019-04-30T13:41:54.948Z,1.40
2019-04-30T13:44:26.148Z,0.50
2019-04-30T13:46:55.817Z,3.63
2019-04-30T13:49:25.801Z,2.10
2019-04-30T13:51:55.438Z,2.20
2019-04-30T13:54:25.004Z,1.03
2019-04-30T13:56:54.613Z,1.73
2019-04-30T13:59:24.127Z,2.47
2019-04-30T14:01:53.882Z,2.57
2019-04-30T14:04:40.330Z,3.60
2019-04-30T14:07:17.532Z,2.87
2019-04-30T14:09:47.021Z,0.50
2019-04-30T14:12:16.588Z,1.50
2019-04-30T14:14:46.066Z,1.33
